sensor_id;sensor_type;location;lat;lon;timestamp;temperature;humidity
78490;DHT22;67776;52.012;4.736;2024-03-02T00:00:03;6.47;99.04
78490;DHT22;67776;52.012;4.736;2024-03-02T00:02:45;6.40;99.23
78490;DHT22;67776;52.012;4.736;2024-03-02T00:05:12;6.32;99.70
78490;DHT22;67776;52.012;4.736;2024-03-02T00:07:41;6.36;99.49
78490;DHT22;67776;52.012;4.736;2024-03-02T00:10:14;6.35;99.85
78490;DHT22;67776;52.012;4.736;2024-03-02T00:12:41;6.29;99.84
78490;DHT22;67776;52.012;4.736;2024-03-02T00:18:24;6.25;99.87
78490;DHT22;67776;52.012;4.736;2024-03-02T00:20:53;6.24;99.81
78490;DHT22;67776;52.012;4.736;2024-03-02T00:23:20;6.25;99.87
78490;DHT22;67776;52.012;4.736;2024-03-02T00:25:49;6.25;99.81
78490;DHT22;67776;52.012;4.736;2024-03-02T00:28:17;6.25;99.55
78490;DHT22;67776;52.012;4.736;2024-03-02T00:30:52;6.21;99.74
78490;DHT22;67776;52.012;4.736;2024-03-02T00:33:20;6.26;99.83
78490;DHT22;67776;52.012;4.736;2024-03-02T00:35:46;6.21;99.40
78490;DHT22;67776;52.012;4.736;2024-03-02T00:38:12;6.22;99.16
78490;DHT22;67776;52.012;4.736;2024-03-02T00:40:38;6.21;99.94
78490;DHT22;67776;52.012;4.736;2024-03-02T00:43:03;6.21;99.30
78490;DHT22;67776;52.012;4.736;2024-03-02T00:45:29;6.21;99.14
78490;DHT22;67776;52.012;4.736;2024-03-02T00:47:55;6.18;99.00
78490;DHT22;67776;52.012;4.736;2024-03-02T00:50:20;6.17;99.45
78490;DHT22;67776;52.012;4.736;2024-03-02T00:52:46;6.15;98.64
78490;DHT22;67776;52.012;4.736;2024-03-02T00:55:13;6.12;99.15
78490;DHT22;67776;52.012;4.736;2024-03-02T00:57:39;6.09;98.79
78490;DHT22;67776;52.012;4.736;2024-03-02T01:00:05;6.05;98.55
78490;DHT22;67776;52.012;4.736;2024-03-02T01:02:34;6.00;98.66
78490;DHT22;67776;52.012;4.736;2024-03-02T01:05:00;6.01;98.19
78490;DHT22;67776;52.012;4.736;2024-03-02T01:07:25;6.00;98.09
78490;DHT22;67776;52.012;4.736;2024-03-02T01:09:50;5.97;98.16
78490;DHT22;67776;52.012;4.736;2024-03-02T01:12:16;5.98;98.33
78490;DHT22;67776;52.012;4.736;2024-03-02T01:14:41;6.00;98.35
78490;DHT22;67776;52.012;4.736;2024-03-02T01:17:06;6.02;98.61
78490;DHT22;67776;52.012;4.736;2024-03-02T01:19:31;5.98;98.91
78490;DHT22;67776;52.012;4.736;2024-03-02T01:21:57;6.00;99.41
78490;DHT22;67776;52.012;4.736;2024-03-02T01:24:22;6.01;99.54
78490;DHT22;67776;52.012;4.736;2024-03-02T01:26:47;5.98;99.33
78490;DHT22;67776;52.012;4.736;2024-03-02T01:29:13;5.97;99.20
78490;DHT22;67776;52.012;4.736;2024-03-02T01:31:38;6.00;99.00
78490;DHT22;67776;52.012;4.736;2024-03-02T01:34:07;5.95;99.02
78490;DHT22;67776;52.012;4.736;2024-03-02T01:36:32;5.98;98.69
78490;DHT22;67776;52.012;4.736;2024-03-02T01:38:57;6.01;98.57
78490;DHT22;67776;52.012;4.736;2024-03-02T01:41:23;6.00;98.64
78490;DHT22;67776;52.012;4.736;2024-03-02T01:43:48;6.02;99.18
78490;DHT22;67776;52.012;4.736;2024-03-02T01:46:13;6.04;99.53
78490;DHT22;67776;52.012;4.736;2024-03-02T01:48:39;6.05;99.71
78490;DHT22;67776;52.012;4.736;2024-03-02T01:51:04;6.02;99.71
78490;DHT22;67776;52.012;4.736;2024-03-02T01:53:31;6.09;99.70
78490;DHT22;67776;52.012;4.736;2024-03-02T01:55:57;6.08;99.26
78490;DHT22;67776;52.012;4.736;2024-03-02T01:58:22;6.11;98.75
78490;DHT22;67776;52.012;4.736;2024-03-02T02:00:48;6.08;98.81
78490;DHT22;67776;52.012;4.736;2024-03-02T02:03:13;6.04;99.03
78490;DHT22;67776;52.012;4.736;2024-03-02T02:05:38;6.05;98.87
78490;DHT22;67776;52.012;4.736;2024-03-02T02:08:04;6.04;98.64
78490;DHT22;67776;52.012;4.736;2024-03-02T02:10:29;6.02;98.82
78490;DHT22;67776;52.012;4.736;2024-03-02T02:12:54;6.00;98.23
78490;DHT22;67776;52.012;4.736;2024-03-02T02:15:27;5.97;98.56
78490;DHT22;67776;52.012;4.736;2024-03-02T02:17:54;5.97;98.39
78490;DHT22;67776;52.012;4.736;2024-03-02T02:20:19;5.98;98.51
78490;DHT22;67776;52.012;4.736;2024-03-02T02:22:58;5.98;98.48
78490;DHT22;67776;52.012;4.736;2024-03-02T02:25:24;6.02;98.27
78490;DHT22;67776;52.012;4.736;2024-03-02T02:27:49;6.04;98.34
78490;DHT22;67776;52.012;4.736;2024-03-02T02:30:23;6.07;98.27
78490;DHT22;67776;52.012;4.736;2024-03-02T02:32:49;6.07;98.36
78490;DHT22;67776;52.012;4.736;2024-03-02T02:35:14;6.08;98.08
78490;DHT22;67776;52.012;4.736;2024-03-02T02:37:40;6.07;98.08
78490;DHT22;67776;52.012;4.736;2024-03-02T02:40:06;6.05;98.38
78490;DHT22;67776;52.012;4.736;2024-03-02T02:42:31;6.07;98.01
78490;DHT22;67776;52.012;4.736;2024-03-02T02:44:57;6.09;98.10
78490;DHT22;67776;52.012;4.736;2024-03-02T02:47:22;6.11;97.74
78490;DHT22;67776;52.012;4.736;2024-03-02T02:49:47;6.09;98.20
78490;DHT22;67776;52.012;4.736;2024-03-02T02:52:12;6.08;98.31
78490;DHT22;67776;52.012;4.736;2024-03-02T02:54:38;6.08;98.22
78490;DHT22;67776;52.012;4.736;2024-03-02T02:57:03;6.09;98.49
78490;DHT22;67776;52.012;4.736;2024-03-02T02:59:29;6.11;98.27
78490;DHT22;67776;52.012;4.736;2024-03-02T03:01:54;6.15;97.89
78490;DHT22;67776;52.012;4.736;2024-03-02T03:04:19;6.12;97.96
78490;DHT22;67776;52.012;4.736;2024-03-02T03:06:45;6.09;97.89
78490;DHT22;67776;52.012;4.736;2024-03-02T03:09:11;6.07;97.68
78490;DHT22;67776;52.012;4.736;2024-03-02T03:11:36;6.04;98.01
78490;DHT22;67776;52.012;4.736;2024-03-02T03:14:02;6.02;98.27
78490;DHT22;67776;52.012;4.736;2024-03-02T03:16:27;6.04;98.19
78490;DHT22;67776;52.012;4.736;2024-03-02T03:18:52;6.05;97.97
78490;DHT22;67776;52.012;4.736;2024-03-02T03:21:18;6.07;97.93
78490;DHT22;67776;52.012;4.736;2024-03-02T03:23:44;6.05;97.99
78490;DHT22;67776;52.012;4.736;2024-03-02T03:26:09;6.07;97.90
78490;DHT22;67776;52.012;4.736;2024-03-02T03:28:34;6.07;97.63
78490;DHT22;67776;52.012;4.736;2024-03-02T03:30:59;6.05;97.83
78490;DHT22;67776;52.012;4.736;2024-03-02T03:33:25;6.02;97.77
78490;DHT22;67776;52.012;4.736;2024-03-02T03:35:50;6.02;97.88
78490;DHT22;67776;52.012;4.736;2024-03-02T03:38:15;5.97;97.87
78490;DHT22;67776;52.012;4.736;2024-03-02T03:40:41;5.97;97.99
78490;DHT22;67776;52.012;4.736;2024-03-02T03:43:06;5.95;98.13
78490;DHT22;67776;52.012;4.736;2024-03-02T03:45:32;5.97;98.14
78490;DHT22;67776;52.012;4.736;2024-03-02T03:47:57;5.94;98.22
78490;DHT22;67776;52.012;4.736;2024-03-02T03:50:22;5.90;97.94
78490;DHT22;67776;52.012;4.736;2024-03-02T03:52:48;5.83;98.16
78490;DHT22;67776;52.012;4.736;2024-03-02T03:55:14;5.74;98.32
78490;DHT22;67776;52.012;4.736;2024-03-02T03:57:40;5.69;98.33
78490;DHT22;67776;52.012;4.736;2024-03-02T04:00:06;5.64;98.35
78490;DHT22;67776;52.012;4.736;2024-03-02T04:02:31;5.63;98.29
78490;DHT22;67776;52.012;4.736;2024-03-02T04:04:57;5.59;98.04
78490;DHT22;67776;52.012;4.736;2024-03-02T04:07:22;5.59;98.17
78490;DHT22;67776;52.012;4.736;2024-03-02T04:09:47;5.56;98.11
78490;DHT22;67776;52.012;4.736;2024-03-02T04:12:13;5.53;97.86
78490;DHT22;67776;52.012;4.736;2024-03-02T04:14:38;5.52;98.02
78490;DHT22;67776;52.012;4.736;2024-03-02T04:17:03;5.49;97.85
78490;DHT22;67776;52.012;4.736;2024-03-02T04:19:29;5.53;97.80
78490;DHT22;67776;52.012;4.736;2024-03-02T04:21:54;5.52;98.05
78490;DHT22;67776;52.012;4.736;2024-03-02T04:24:19;5.53;98.02
78490;DHT22;67776;52.012;4.736;2024-03-02T04:26:45;5.52;98.01
78490;DHT22;67776;52.012;4.736;2024-03-02T04:29:10;5.50;98.23
78490;DHT22;67776;52.012;4.736;2024-03-02T04:31:35;5.50;98.22
78490;DHT22;67776;52.012;4.736;2024-03-02T04:34:01;5.46;98.30
78490;DHT22;67776;52.012;4.736;2024-03-02T04:36:26;5.40;98.50
78490;DHT22;67776;52.012;4.736;2024-03-02T04:38:51;5.39;98.54
78490;DHT22;67776;52.012;4.736;2024-03-02T04:41:17;5.36;98.57
78490;DHT22;67776;52.012;4.736;2024-03-02T04:43:42;5.35;98.64
78490;DHT22;67776;52.012;4.736;2024-03-02T04:46:07;5.34;98.60
78490;DHT22;67776;52.012;4.736;2024-03-02T04:48:33;5.34;98.51
78490;DHT22;67776;52.012;4.736;2024-03-02T04:50:58;5.36;98.58
78490;DHT22;67776;52.012;4.736;2024-03-02T04:53:24;5.35;98.26
78490;DHT22;67776;52.012;4.736;2024-03-02T04:55:49;5.39;98.06
78490;DHT22;67776;52.012;4.736;2024-03-02T04:58:17;5.40;98.05
78490;DHT22;67776;52.012;4.736;2024-03-02T05:00:42;5.38;98.02
78490;DHT22;67776;52.012;4.736;2024-03-02T05:03:08;5.40;97.81
78490;DHT22;67776;52.012;4.736;2024-03-02T05:05:33;5.45;97.73
78490;DHT22;67776;52.012;4.736;2024-03-02T05:07:58;5.47;97.59
78490;DHT22;67776;52.012;4.736;2024-03-02T05:10:24;5.47;97.52
78490;DHT22;67776;52.012;4.736;2024-03-02T05:12:49;5.45;97.68
78490;DHT22;67776;52.012;4.736;2024-03-02T05:15:22;5.45;97.57
78490;DHT22;67776;52.012;4.736;2024-03-02T05:17:47;5.42;97.51
78490;DHT22;67776;52.012;4.736;2024-03-02T05:20:13;5.43;97.36
78490;DHT22;67776;52.012;4.736;2024-03-02T05:22:38;5.40;97.19
78490;DHT22;67776;52.012;4.736;2024-03-02T05:25:06;5.38;97.56
78490;DHT22;67776;52.012;4.736;2024-03-02T05:27:31;5.35;97.42
78490;DHT22;67776;52.012;4.736;2024-03-02T05:29:58;5.32;97.30
78490;DHT22;67776;52.012;4.736;2024-03-02T05:32:23;5.34;97.30
78490;DHT22;67776;52.012;4.736;2024-03-02T05:34:49;5.38;97.30
78490;DHT22;67776;52.012;4.736;2024-03-02T05:37:16;5.39;97.34
78490;DHT22;67776;52.012;4.736;2024-03-02T05:39:41;5.45;96.91
78490;DHT22;67776;52.012;4.736;2024-03-02T05:42:08;5.47;97.10
78490;DHT22;67776;52.012;4.736;2024-03-02T05:44:34;5.54;96.89
78490;DHT22;67776;52.012;4.736;2024-03-02T05:46:59;5.56;96.84
78490;DHT22;67776;52.012;4.736;2024-03-02T05:49:24;5.64;96.35
78490;DHT22;67776;52.012;4.736;2024-03-02T05:51:50;5.71;96.05
78490;DHT22;67776;52.012;4.736;2024-03-02T05:54:15;5.74;96.17
78490;DHT22;67776;52.012;4.736;2024-03-02T05:56:40;5.77;95.95
78490;DHT22;67776;52.012;4.736;2024-03-02T05:59:06;5.84;95.97
78490;DHT22;67776;52.012;4.736;2024-03-02T06:01:47;5.83;96.10
78490;DHT22;67776;52.012;4.736;2024-03-02T06:04:13;5.90;95.52
78490;DHT22;67776;52.012;4.736;2024-03-02T06:06:39;5.89;95.30
78490;DHT22;67776;52.012;4.736;2024-03-02T06:09:05;5.91;95.48
78490;DHT22;67776;52.012;4.736;2024-03-02T06:11:35;5.90;95.04
78490;DHT22;67776;52.012;4.736;2024-03-02T06:14:04;5.86;95.66
78490;DHT22;67776;52.012;4.736;2024-03-02T06:16:30;5.84;95.35
78490;DHT22;67776;52.012;4.736;2024-03-02T06:18:56;5.84;94.93
78490;DHT22;67776;52.012;4.736;2024-03-02T06:21:23;5.89;94.57
78490;DHT22;67776;52.012;4.736;2024-03-02T06:23:49;5.87;94.84
78490;DHT22;67776;52.012;4.736;2024-03-02T06:26:14;5.86;94.47
78490;DHT22;67776;52.012;4.736;2024-03-02T06:28:39;5.86;94.22
78490;DHT22;67776;52.012;4.736;2024-03-02T06:31:05;5.77;94.83
78490;DHT22;67776;52.012;4.736;2024-03-02T06:33:30;5.74;94.73
78490;DHT22;67776;52.012;4.736;2024-03-02T06:35:55;5.77;94.12
78490;DHT22;67776;52.012;4.736;2024-03-02T06:38:21;5.75;94.39
78490;DHT22;67776;52.012;4.736;2024-03-02T06:40:46;5.66;94.49
78490;DHT22;67776;52.012;4.736;2024-03-02T06:43:11;5.73;94.10
78490;DHT22;67776;52.012;4.736;2024-03-02T06:45:37;5.74;94.20
78490;DHT22;67776;52.012;4.736;2024-03-02T06:48:03;5.74;94.01
78490;DHT22;67776;52.012;4.736;2024-03-02T06:50:28;5.77;93.88
78490;DHT22;67776;52.012;4.736;2024-03-02T06:52:54;5.77;94.13
78490;DHT22;67776;52.012;4.736;2024-03-02T06:55:21;5.73;94.02
78490;DHT22;67776;52.012;4.736;2024-03-02T06:57:46;5.73;93.55
78490;DHT22;67776;52.012;4.736;2024-03-02T07:00:12;5.75;93.35
78490;DHT22;67776;52.012;4.736;2024-03-02T07:02:37;5.75;93.35
78490;DHT22;67776;52.012;4.736;2024-03-02T07:05:03;5.75;92.95
78490;DHT22;67776;52.012;4.736;2024-03-02T07:07:29;5.69;93.44
78490;DHT22;67776;52.012;4.736;2024-03-02T07:09:54;5.64;93.63
78490;DHT22;67776;52.012;4.736;2024-03-02T07:12:19;5.63;93.13
78490;DHT22;67776;52.012;4.736;2024-03-02T07:14:45;5.62;93.53
78490;DHT22;67776;52.012;4.736;2024-03-02T07:17:33;5.57;93.53
78490;DHT22;67776;52.012;4.736;2024-03-02T07:19:59;5.54;93.87
78490;DHT22;67776;52.012;4.736;2024-03-02T07:22:24;5.50;94.20
78490;DHT22;67776;52.012;4.736;2024-03-02T07:24:50;5.49;94.27
78490;DHT22;67776;52.012;4.736;2024-03-02T07:27:16;5.54;93.99
78490;DHT22;67776;52.012;4.736;2024-03-02T07:29:42;5.49;94.30
78490;DHT22;67776;52.012;4.736;2024-03-02T07:32:08;5.49;94.45
78490;DHT22;67776;52.012;4.736;2024-03-02T07:34:34;5.52;94.38
78490;DHT22;67776;52.012;4.736;2024-03-02T07:36:59;5.52;94.37
78490;DHT22;67776;52.012;4.736;2024-03-02T07:39:25;5.50;94.51
78490;DHT22;67776;52.012;4.736;2024-03-02T07:41:51;5.59;94.17
78490;DHT22;67776;52.012;4.736;2024-03-02T07:44:16;5.69;93.91
78490;DHT22;67776;52.012;4.736;2024-03-02T07:46:44;5.75;94.09
78490;DHT22;67776;52.012;4.736;2024-03-02T07:49:11;5.74;94.05
78490;DHT22;67776;52.012;4.736;2024-03-02T07:51:37;5.80;93.91
78490;DHT22;67776;52.012;4.736;2024-03-02T07:54:02;5.83;93.65
78490;DHT22;67776;52.012;4.736;2024-03-02T07:56:27;5.83;94.03
78490;DHT22;67776;52.012;4.736;2024-03-02T07:58:54;5.91;93.64
78490;DHT22;67776;52.012;4.736;2024-03-02T08:01:19;5.97;93.72
78490;DHT22;67776;52.012;4.736;2024-03-02T08:03:45;6.05;93.04
78490;DHT22;67776;52.012;4.736;2024-03-02T08:06:16;6.09;93.11
78490;DHT22;67776;52.012;4.736;2024-03-02T08:08:41;6.17;92.98
78490;DHT22;67776;52.012;4.736;2024-03-02T08:11:06;6.17;93.13
78490;DHT22;67776;52.012;4.736;2024-03-02T08:13:32;6.21;92.47
78490;DHT22;67776;52.012;4.736;2024-03-02T08:15:57;6.28;92.38
78490;DHT22;67776;52.012;4.736;2024-03-02T08:18:23;6.35;92.07
78490;DHT22;67776;52.012;4.736;2024-03-02T08:20:48;6.40;91.72
78490;DHT22;67776;52.012;4.736;2024-03-02T08:23:13;6.46;91.52
78490;DHT22;67776;52.012;4.736;2024-03-02T08:25:39;6.53;91.35
78490;DHT22;67776;52.012;4.736;2024-03-02T08:28:04;6.56;91.04
78490;DHT22;67776;52.012;4.736;2024-03-02T08:30:29;6.63;90.81
78490;DHT22;67776;52.012;4.736;2024-03-02T08:32:55;6.67;90.29
78490;DHT22;67776;52.012;4.736;2024-03-02T08:35:20;6.73;90.53
78490;DHT22;67776;52.012;4.736;2024-03-02T08:37:47;6.74;90.18
78490;DHT22;67776;52.012;4.736;2024-03-02T08:40:13;6.79;89.93
78490;DHT22;67776;52.012;4.736;2024-03-02T08:42:38;6.81;89.57
78490;DHT22;67776;52.012;4.736;2024-03-02T08:45:04;6.87;89.61
78490;DHT22;67776;52.012;4.736;2024-03-02T08:47:29;6.94;89.20
78490;DHT22;67776;52.012;4.736;2024-03-02T08:49:55;6.98;89.11
78490;DHT22;67776;52.012;4.736;2024-03-02T08:52:20;7.04;88.61
78490;DHT22;67776;52.012;4.736;2024-03-02T08:54:45;7.09;88.82
78490;DHT22;67776;52.012;4.736;2024-03-02T08:57:11;7.11;88.77
78490;DHT22;67776;52.012;4.736;2024-03-02T08:59:36;7.16;88.10
78490;DHT22;67776;52.012;4.736;2024-03-02T09:02:01;7.26;88.70
78490;DHT22;67776;52.012;4.736;2024-03-02T09:04:28;7.30;87.85
78490;DHT22;67776;52.012;4.736;2024-03-02T09:06:53;7.33;87.72
78490;DHT22;67776;52.012;4.736;2024-03-02T09:09:19;7.43;87.93
78490;DHT22;67776;52.012;4.736;2024-03-02T09:11:46;7.50;87.96
78490;DHT22;67776;52.012;4.736;2024-03-02T09:14:11;7.57;87.59
78490;DHT22;67776;52.012;4.736;2024-03-02T09:16:37;7.62;86.93
78490;DHT22;67776;52.012;4.736;2024-03-02T09:19:03;7.66;85.77
78490;DHT22;67776;52.012;4.736;2024-03-02T09:21:28;7.78;86.21
78490;DHT22;67776;52.012;4.736;2024-03-02T09:23:55;7.88;86.07
78490;DHT22;67776;52.012;4.736;2024-03-02T09:26:20;7.88;85.12
78490;DHT22;67776;52.012;4.736;2024-03-02T09:28:46;8.04;84.64
78490;DHT22;67776;52.012;4.736;2024-03-02T09:31:11;8.12;85.28
78490;DHT22;67776;52.012;4.736;2024-03-02T09:33:37;8.29;84.79
78490;DHT22;67776;52.012;4.736;2024-03-02T09:36:04;8.30;83.39
78490;DHT22;67776;52.012;4.736;2024-03-02T09:38:32;8.46;83.97
78490;DHT22;67776;52.012;4.736;2024-03-02T09:40:58;8.47;83.04
78490;DHT22;67776;52.012;4.736;2024-03-02T09:43:24;8.59;82.14
78490;DHT22;67776;52.012;4.736;2024-03-02T09:45:50;8.89;82.06
78490;DHT22;67776;52.012;4.736;2024-03-02T09:48:16;9.50;81.21
78490;DHT22;67776;52.012;4.736;2024-03-02T09:50:43;9.69;78.82
78490;DHT22;67776;52.012;4.736;2024-03-02T09:53:09;9.98;76.92
78490;DHT22;67776;52.012;4.736;2024-03-02T09:55:35;10.32;77.22
78490;DHT22;67776;52.012;4.736;2024-03-02T09:58:00;10.59;75.03
78490;DHT22;67776;52.012;4.736;2024-03-02T10:00:26;10.76;74.74
78490;DHT22;67776;52.012;4.736;2024-03-02T10:02:51;10.90;74.58
78490;DHT22;67776;52.012;4.736;2024-03-02T10:05:26;10.88;74.05
78490;DHT22;67776;52.012;4.736;2024-03-02T10:08:01;11.00;74.54
78490;DHT22;67776;52.012;4.736;2024-03-02T10:10:35;11.25;73.30
78490;DHT22;67776;52.012;4.736;2024-03-02T10:13:05;11.40;72.69
78490;DHT22;67776;52.012;4.736;2024-03-02T10:15:30;11.44;72.78
78490;DHT22;67776;52.012;4.736;2024-03-02T10:17:56;11.42;72.91
78490;DHT22;67776;52.012;4.736;2024-03-02T10:20:25;11.42;71.95
78490;DHT22;67776;52.012;4.736;2024-03-02T10:22:52;11.73;72.01
78490;DHT22;67776;52.012;4.736;2024-03-02T10:25:28;11.78;69.45
78490;DHT22;67776;52.012;4.736;2024-03-02T10:27:57;12.24;69.00
78490;DHT22;67776;52.012;4.736;2024-03-02T10:30:22;12.25;67.66
78490;DHT22;67776;52.012;4.736;2024-03-02T10:32:49;12.50;66.35
78490;DHT22;67776;52.012;4.736;2024-03-02T10:35:16;12.59;66.51
78490;DHT22;67776;52.012;4.736;2024-03-02T10:37:41;12.66;65.82
78490;DHT22;67776;52.012;4.736;2024-03-02T10:40:10;12.39;66.45
78490;DHT22;67776;52.012;4.736;2024-03-02T10:42:37;12.63;65.37
78490;DHT22;67776;52.012;4.736;2024-03-02T10:45:09;12.94;64.80
78490;DHT22;67776;52.012;4.736;2024-03-02T10:47:36;13.11;65.54
78490;DHT22;67776;52.012;4.736;2024-03-02T10:50:04;13.14;63.92
78490;DHT22;67776;52.012;4.736;2024-03-02T10:52:34;13.15;63.43
78490;DHT22;67776;52.012;4.736;2024-03-02T10:54:59;13.67;61.75
78490;DHT22;67776;52.012;4.736;2024-03-02T10:57:26;13.77;62.13
78490;DHT22;67776;52.012;4.736;2024-03-02T11:00:02;13.83;62.24
78490;DHT22;67776;52.012;4.736;2024-03-02T11:02:29;13.94;60.72
78490;DHT22;67776;52.012;4.736;2024-03-02T11:04:55;14.14;61.50
78490;DHT22;67776;52.012;4.736;2024-03-02T11:07:21;14.58;62.36
78490;DHT22;67776;52.012;4.736;2024-03-02T11:09:59;14.32;59.84
78490;DHT22;67776;52.012;4.736;2024-03-02T11:12:29;14.56;59.48
78490;DHT22;67776;52.012;4.736;2024-03-02T11:14:58;14.79;59.53
78490;DHT22;67776;52.012;4.736;2024-03-02T11:17:24;14.26;58.92
78490;DHT22;67776;52.012;4.736;2024-03-02T11:19:50;14.35;58.21
78490;DHT22;67776;52.012;4.736;2024-03-02T11:22:15;14.36;59.57
78490;DHT22;67776;52.012;4.736;2024-03-02T11:24:48;14.45;58.00
78490;DHT22;67776;52.012;4.736;2024-03-02T11:27:13;14.58;57.92
78490;DHT22;67776;52.012;4.736;2024-03-02T11:34:41;15.00;58.77
78490;DHT22;67776;52.012;4.736;2024-03-02T11:37:10;14.69;56.95
78490;DHT22;67776;52.012;4.736;2024-03-02T11:39:36;14.76;57.97
78490;DHT22;67776;52.012;4.736;2024-03-02T11:42:01;14.59;57.99
78490;DHT22;67776;52.012;4.736;2024-03-02T11:44:28;14.96;58.34
78490;DHT22;67776;52.012;4.736;2024-03-02T11:47:01;14.70;57.32
78490;DHT22;67776;52.012;4.736;2024-03-02T11:49:50;14.45;56.86
78490;DHT22;67776;52.012;4.736;2024-03-02T11:52:17;15.12;55.57
78490;DHT22;67776;52.012;4.736;2024-03-02T11:54:44;14.93;57.19
78490;DHT22;67776;52.012;4.736;2024-03-02T11:57:13;14.72;56.64
78490;DHT22;67776;52.012;4.736;2024-03-02T11:59:40;15.12;57.11
78490;DHT22;67776;52.012;4.736;2024-03-02T12:02:06;15.59;56.32
78490;DHT22;67776;52.012;4.736;2024-03-02T12:04:31;15.39;54.07
78490;DHT22;67776;52.012;4.736;2024-03-02T12:06:58;15.79;53.96
78490;DHT22;67776;52.012;4.736;2024-03-02T12:09:30;15.58;54.88
78490;DHT22;67776;52.012;4.736;2024-03-02T12:14:31;14.48;55.63
78490;DHT22;67776;52.012;4.736;2024-03-02T12:16:57;15.46;54.54
78490;DHT22;67776;52.012;4.736;2024-03-02T12:19:24;15.46;53.92
78490;DHT22;67776;52.012;4.736;2024-03-02T12:21:49;15.85;53.71
78490;DHT22;67776;52.012;4.736;2024-03-02T12:24:15;15.65;53.20
78490;DHT22;67776;52.012;4.736;2024-03-02T12:26:40;14.60;55.80
78490;DHT22;67776;52.012;4.736;2024-03-02T12:29:06;15.31;54.55
78490;DHT22;67776;52.012;4.736;2024-03-02T12:31:32;15.48;52.82
78490;DHT22;67776;52.012;4.736;2024-03-02T12:33:58;15.45;52.53
78490;DHT22;67776;52.012;4.736;2024-03-02T12:36:23;16.01;51.15
78490;DHT22;67776;52.012;4.736;2024-03-02T12:38:52;16.31;51.29
78490;DHT22;67776;52.012;4.736;2024-03-02T12:41:18;15.67;51.75
78490;DHT22;67776;52.012;4.736;2024-03-02T12:43:43;15.90;52.37
78490;DHT22;67776;52.012;4.736;2024-03-02T12:46:08;16.81;51.79
78490;DHT22;67776;52.012;4.736;2024-03-02T12:48:34;16.79;52.50
78490;DHT22;67776;52.012;4.736;2024-03-02T12:51:01;16.62;50.76
78490;DHT22;67776;52.012;4.736;2024-03-02T12:53:26;16.93;49.98
78490;DHT22;67776;52.012;4.736;2024-03-02T12:55:52;17.23;49.30
78490;DHT22;67776;52.012;4.736;2024-03-02T12:58:24;16.51;50.58
78490;DHT22;67776;52.012;4.736;2024-03-02T13:00:49;15.71;52.18
78490;DHT22;67776;52.012;4.736;2024-03-02T13:03:18;14.65;55.78
78490;DHT22;67776;52.012;4.736;2024-03-02T13:05:48;14.93;55.32
78490;DHT22;67776;52.012;4.736;2024-03-02T13:08:14;14.28;56.52
78490;DHT22;67776;52.012;4.736;2024-03-02T13:10:40;13.80;58.01
78490;DHT22;67776;52.012;4.736;2024-03-02T13:13:06;13.63;58.75
78490;DHT22;67776;52.012;4.736;2024-03-02T13:15:33;13.59;58.03
78490;DHT22;67776;52.012;4.736;2024-03-02T13:17:59;13.76;58.26
78490;DHT22;67776;52.012;4.736;2024-03-02T13:20:30;15.70;54.32
78490;DHT22;67776;52.012;4.736;2024-03-02T13:22:56;14.41;56.86
78490;DHT22;67776;52.012;4.736;2024-03-02T13:25:22;13.66;59.29
78490;DHT22;67776;52.012;4.736;2024-03-02T13:27:47;13.42;60.03
78490;DHT22;67776;52.012;4.736;2024-03-02T13:30:13;13.26;61.73
78490;DHT22;67776;52.012;4.736;2024-03-02T13:32:38;13.11;60.56
78490;DHT22;67776;52.012;4.736;2024-03-02T13:35:03;13.12;60.79
78490;DHT22;67776;52.012;4.736;2024-03-02T13:37:29;13.18;60.82
78490;DHT22;67776;52.012;4.736;2024-03-02T13:39:54;12.98;61.16
78490;DHT22;67776;52.012;4.736;2024-03-02T13:42:20;13.21;62.14
78490;DHT22;67776;52.012;4.736;2024-03-02T13:44:45;13.32;62.31
78490;DHT22;67776;52.012;4.736;2024-03-02T13:47:12;13.10;62.16
78490;DHT22;67776;52.012;4.736;2024-03-02T13:49:37;13.10;62.92
78490;DHT22;67776;52.012;4.736;2024-03-02T13:52:05;13.31;63.49
78490;DHT22;67776;52.012;4.736;2024-03-02T13:54:39;13.18;63.78
78490;DHT22;67776;52.012;4.736;2024-03-02T13:57:05;13.11;63.91
78490;DHT22;67776;52.012;4.736;2024-03-02T13:59:31;12.76;62.94
78490;DHT22;67776;52.012;4.736;2024-03-02T14:01:56;12.95;63.72
78490;DHT22;67776;52.012;4.736;2024-03-02T14:04:22;12.81;64.34
78490;DHT22;67776;52.012;4.736;2024-03-02T14:06:47;12.77;64.04
78490;DHT22;67776;52.012;4.736;2024-03-02T14:09:13;12.88;63.43
78490;DHT22;67776;52.012;4.736;2024-03-02T14:11:38;12.87;64.00
78490;DHT22;67776;52.012;4.736;2024-03-02T14:14:04;12.86;64.08
78490;DHT22;67776;52.012;4.736;2024-03-02T14:16:29;12.88;63.72
78490;DHT22;67776;52.012;4.736;2024-03-02T14:18:54;12.83;63.63
78490;DHT22;67776;52.012;4.736;2024-03-02T14:21:20;12.66;64.09
78490;DHT22;67776;52.012;4.736;2024-03-02T14:23:45;12.53;64.50
78490;DHT22;67776;52.012;4.736;2024-03-02T14:26:10;12.55;64.87
78490;DHT22;67776;52.012;4.736;2024-03-02T14:28:36;12.49;64.07
78490;DHT22;67776;52.012;4.736;2024-03-02T14:31:01;12.40;64.23
78490;DHT22;67776;52.012;4.736;2024-03-02T14:33:28;12.38;64.74
78490;DHT22;67776;52.012;4.736;2024-03-02T14:35:53;12.36;65.68
78490;DHT22;67776;52.012;4.736;2024-03-02T14:38:19;12.33;66.50
78490;DHT22;67776;52.012;4.736;2024-03-02T14:40:45;12.36;64.85
78490;DHT22;67776;52.012;4.736;2024-03-02T14:43:10;12.39;65.26
78490;DHT22;67776;52.012;4.736;2024-03-02T14:45:35;12.52;65.70
78490;DHT22;67776;52.012;4.736;2024-03-02T14:48:02;12.60;65.83
78490;DHT22;67776;52.012;4.736;2024-03-02T14:50:28;12.56;65.50
78490;DHT22;67776;52.012;4.736;2024-03-02T14:52:53;12.56;65.93
78490;DHT22;67776;52.012;4.736;2024-03-02T14:55:19;12.57;66.78
78490;DHT22;67776;52.012;4.736;2024-03-02T14:57:44;12.52;65.60
78490;DHT22;67776;52.012;4.736;2024-03-02T15:00:10;12.57;65.81
78490;DHT22;67776;52.012;4.736;2024-03-02T15:02:37;12.72;66.05
78490;DHT22;67776;52.012;4.736;2024-03-02T15:05:03;12.73;65.15
78490;DHT22;67776;52.012;4.736;2024-03-02T15:07:30;12.72;65.82
78490;DHT22;67776;52.012;4.736;2024-03-02T15:09:56;12.52;66.64
78490;DHT22;67776;52.012;4.736;2024-03-02T15:12:21;12.60;67.02
78490;DHT22;67776;52.012;4.736;2024-03-02T15:14:46;12.49;66.14
78490;DHT22;67776;52.012;4.736;2024-03-02T15:17:13;12.48;66.99
78490;DHT22;67776;52.012;4.736;2024-03-02T15:19:42;12.40;66.58
78490;DHT22;67776;52.012;4.736;2024-03-02T15:22:08;12.40;66.19
78490;DHT22;67776;52.012;4.736;2024-03-02T15:24:33;12.35;66.30
78490;DHT22;67776;52.012;4.736;2024-03-02T15:26:59;12.33;66.55
78490;DHT22;67776;52.012;4.736;2024-03-02T15:29:24;12.32;66.34
78490;DHT22;67776;52.012;4.736;2024-03-02T15:31:54;12.31;66.78
78490;DHT22;67776;52.012;4.736;2024-03-02T15:34:20;12.26;67.06
78490;DHT22;67776;52.012;4.736;2024-03-02T15:36:45;12.32;67.28
78490;DHT22;67776;52.012;4.736;2024-03-02T15:39:11;12.35;66.80
78490;DHT22;67776;52.012;4.736;2024-03-02T15:41:36;12.33;67.60
78490;DHT22;67776;52.012;4.736;2024-03-02T15:44:01;12.31;67.35